首页
METAR-TAF:

METAR-TAF

机场 :

Pensacola Regional Airport

彭萨科拉, 佛罗里达州, 美国

纬度: 30-28-41N, 经度: 087-11-13W, 海拔: 36米

当前天气观测

该预报发布于1小时和3分钟前的04:53 UTC
风速5节,风向西南
温度 27°C
湿度 84%
气压 1019 hPa
能見度: 16.1公里
天空无云

METAR: KPNS 270453Z AUTO 23005KT 10SM CLR 27/24 A3009 RMK AO2 SLP189 T02670244

时间: 00:56 (05:56 UTC)

预报

该预报发布于36分钟前的05:20 UTC
预报有效从27日的 06点(UTC)到 28日的 06点(UTC)
风速4节,风向西南
能見度: 10公里
天空无云
从 27日的 1500点(UTC)
风速8节,风向
能見度: 10公里
少量云层高于5000英尺
散云层高于25000英尺
从 28日的 0100点(UTC)
风速4节,风向
能見度: 10公里
天空无云

TAF: KPNS 270520Z 2706/2806 22004KT P6SM SKC FM271500 19008KT P6SM FEW050 SCT250 FM280100 19004KT P6SM SKC

超过4000个机场的气象观测和天气预报(METAR&TAF报告)。

可查询的气象台以黄色和红色小点在地图上表示。

将鼠标移到小点上方,可查看气象台名称。

然后点击查看天气观测和预报。

如需切换地图:点击带黑十字的绿色按钮放大地图;点击带横线的绿色按钮缩小地图;或者点击绿色箭头查看邻近地区的地图。


METAR-TAF: